This is the latest recevied weather packets stored in our database for station/object BMCB-34. If no packets are shown the sender has not sent any weather packets the latest 10 day(s).
| Time | Temp. | Humidity | Pressure | Rain* | Wind** | Luminosity | Snow |
|---|---|---|---|---|---|---|---|
| 1777785626 | 13.33° C | 67% | 1008.6 hPa | 0 mm | - | 20 W/m² | - |
| 1777777823 | 12.78° C | 64% | 1008.9 hPa | 0 mm | - | 0 W/m² | - |
| 1777776032 | 12.78° C | 67% | 1009 hPa | 0 mm | - | 0 W/m² | - |
| 1777773029 | 12.78° C | 70% | 1009.3 hPa | 0 mm | - | 0 W/m² | - |
| 1777770628 | 12.78° C | 68% | 1009.6 hPa | 0 mm | - | 0 W/m² | - |
| 1777770030 | 12.78° C | 68% | 1009.5 hPa | 0 mm | - | 0 W/m² | - |
| 1777768228 | 13.33° C | 65% | 1009.8 hPa | 0 mm | - | 0 W/m² | - |
| 1777767030 | 14.44° C | 60% | 1009.9 hPa | 0 mm | - | 0 W/m² | - |
| 1777758032 | 15° C | 61% | 1010 hPa | 0 mm | - | 0 W/m² | - |
| 1777756234 | 15.56° C | 61% | 1010.1 hPa | 0 mm | - | 0 W/m² | - |
| 1777755038 | 15.56° C | 60% | 1010.1 hPa | 0 mm | - | 0 W/m² | - |
| 1777754436 | 15.56° C | 60% | 1010.2 hPa | 0 mm | - | 0 W/m² | - |
| 1777749034 | 17.78° C | 57% | 1009.6 hPa | 0 mm | - | 0 W/m² | - |
| 1777744221 | 22.78° C | 46% | 1009.4 hPa | 0 mm | - | 114 W/m² | - |
| 1777737622 | 25° C | 33% | 1010 hPa | 0 mm | - | 398 W/m² | - |
| 1777735819 | 25° C | 33% | 1010.3 hPa | 0 mm | - | 478 W/m² | - |
| 1777734624 | 25° C | 35% | 1010.6 hPa | 0 mm | - | 458 W/m² | - |
| 1777731622 | 25° C | 39% | 1011.3 hPa | 0 mm | - | 496 W/m² | - |
| 1777730422 | 25° C | 39% | 1011.6 hPa | 0 mm | - | 564 W/m² | - |
| 1777728624 | 24.44° C | 43% | 1011.8 hPa | 0 mm | - | 566 W/m² | - |
| 1777722622 | 22.78° C | 55% | 1013.3 hPa | 0 mm | - | 596 W/m² | - |
| 1777719025 | 21.67° C | 56% | 1014 hPa | 0 mm | - | 628 W/m² | - |
| 1777717223 | 20.56° C | 57% | 1014.5 hPa | 0 mm | - | 586 W/m² | - |
| 1777715423 | 20° C | 57% | 1014.9 hPa | 0 mm | - | 548 W/m² | - |
| 1777711823 | 16.67° C | 59% | 1015.5 hPa | 0 mm | - | 440 W/m² | - |
* Rain latest hour (hover to see other rain measurements)
** Current wind speed in m/s (hover to see current wind gust speed)